KADG/ADG METAR and TAF weather

Enter ICAO airport designator
Station Type Date Time Source
KADG METAR 2020/12/06 01:53 UTC NOAA

KADG 060153Z AUTO 00000KT 10SM CLR M03/M06 A3013 RMK AO2 SLP215 T10281061 TSNO


Station Type Date Time Source
KADG Decoded METAR 2020/12/06 01:53 UTC NOAA

ADRIAN LENAWEE COUNTY AIRPORT, MI, United States (KADG) 41-52N 84-05W 241M
Dec 05, 2020 - 08:53 PM EST / 2020.12.06 0153 UTC
Wind: Calm:0
Visibility: 10 mile(s):0
Sky conditions: clear
Temperature: 27.0 F (-2.8 C)
Dew Point: 21.0 F (-6.1 C)
Relative Humidity: 77%
Pressure (altimeter): 30.13 in. Hg (1020 hPa)
ob: KADG 060153Z AUTO 00000KT 10SM CLR M03/M06 A3013 RMK AO2 SLP215 T10281061 TSNO
cycle: 2

Station Type Date Time Source
KADG TAF UTC NOAA

Error!

Example: see airport list